Time,TemperatureF,DewpointF,PressureIn,WindDirection,WindDirectionDegrees,WindSpeedMPH,WindSpeedGustMPH,Humidity,HourlyPrecipIn,Conditions,Clouds,dailyrainin,SolarRadiationWatts/m^2,SoftwareType,DateUTC
2013-08-07 00:33:00,62.0,58.0,30.22,West,262,0.0,0.0,87,0.00,,,0.00,0.000000,,2013-08-07 04:33:00,
2013-08-07 00:43:00,62.0,58.0,30.22,West,262,0.0,0.0,87,0.00,,,0.00,0.000000,,2013-08-07 04:43:00,
2013-08-07 00:52:00,62.0,58.0,30.22,West,262,0.0,0.0,87,0.00,,,0.00,0.000000,,2013-08-07 04:52:00,
2013-08-07 01:02:00,62.0,58.0,30.22,West,262,0.0,0.0,88,0.00,,,0.00,0.000000,,2013-08-07 05:02:00,
2013-08-07 01:11:00,62.0,58.0,30.22,West,262,0.0,0.0,88,0.00,,,0.00,0.000000,,2013-08-07 05:11:00,
2013-08-07 01:22:00,62.0,58.0,30.22,West,262,0.0,0.0,88,0.00,,,0.00,0.000000,,2013-08-07 05:22:00,
2013-08-07 01:32:00,62.0,58.0,30.22,West,262,0.0,0.0,88,0.00,,,0.00,0.000000,,2013-08-07 05:32:00,
2013-08-07 01:43:00,62.0,59.0,30.22,West,262,0.0,0.0,89,0.00,,,0.00,0.000000,,2013-08-07 05:43:00,
2013-08-07 01:52:00,62.0,59.0,30.22,West,262,0.0,0.0,89,0.00,,,0.00,0.000000,,2013-08-07 05:52:00,
2013-08-07 02:02:00,62.0,59.0,30.22,West,262,0.0,0.0,90,0.00,,,0.00,0.000000,,2013-08-07 06:02:00,
2013-08-07 02:11:00,62.0,59.0,30.22,West,262,0.0,0.0,89,0.00,,,0.00,0.000000,,2013-08-07 06:11:00,
2013-08-07 02:22:00,62.0,59.0,30.22,West,262,0.0,0.0,89,0.00,,,0.00,0.000000,,2013-08-07 06:22:00,
2013-08-07 02:43:00,63.0,60.0,30.22,West,262,0.0,0.0,89,0.00,,,0.00,0.000000,,2013-08-07 06:43:00,
2013-08-07 02:52:00,63.0,60.0,30.22,West,262,0.0,0.0,89,0.00,,,0.00,0.000000,,2013-08-07 06:52:00,
2013-08-07 03:01:00,63.0,59.0,30.23,West,262,0.0,0.0,88,0.00,,,0.00,0.000000,,2013-08-07 07:01:00,
2013-08-07 03:12:00,63.0,59.0,30.22,West,262,0.0,0.0,88,0.00,,,0.00,0.000000,,2013-08-07 07:12:00,
2013-08-07 03:22:00,63.0,59.0,30.22,West,262,0.0,0.0,88,0.00,,,0.00,0.000000,,2013-08-07 07:22:00,
2013-08-07 03:33:00,63.0,59.0,30.22,West,262,0.0,0.0,88,0.00,,,0.00,0.000000,,2013-08-07 07:33:00,
2013-08-07 03:43:00,63.0,59.0,30.22,West,262,0.0,0.0,88,0.00,,,0.00,0.000000,,2013-08-07 07:43:00,
2013-08-07 03:52:00,63.0,59.0,30.22,West,262,0.0,0.0,88,0.00,,,0.00,0.000000,,2013-08-07 07:52:00,
2013-08-07 04:02:00,63.0,59.0,30.22,West,262,0.0,0.0,88,0.00,,,0.00,0.000000,,2013-08-07 08:02:00,
2013-08-07 04:22:00,63.0,60.0,30.22,West,262,0.0,0.0,89,0.00,,,0.00,0.000000,,2013-08-07 08:22:00,
2013-08-07 04:32:00,63.0,60.0,30.22,West,262,0.0,0.0,89,0.00,,,0.00,0.000000,,2013-08-07 08:32:00,
2013-08-07 04:52:00,62.0,59.0,30.22,West,262,0.0,0.0,90,0.00,,,0.00,0.000000,,2013-08-07 08:52:00,
2013-08-07 05:02:00,62.0,59.0,30.22,West,262,0.0,0.0,89,0.00,,,0.00,0.000000,,2013-08-07 09:02:00,
2013-08-07 05:12:00,62.0,59.0,30.22,West,262,0.0,0.0,90,0.00,,,0.00,0.000000,,2013-08-07 09:12:00,
2013-08-07 05:22:00,62.0,59.0,30.22,West,262,0.0,0.0,90,0.00,,,0.00,0.000000,,2013-08-07 09:22:00,
2013-08-07 05:32:00,62.0,59.0,30.23,SE,146,0.0,2.0,90,0.00,,,0.00,0.000000,,2013-08-07 09:32:00,
2013-08-07 05:54:00,62.0,59.0,30.23,SE,146,0.0,0.0,90,0.00,,,0.00,0.000000,,2013-08-07 09:54:00,
2013-08-07 06:01:00,63.0,60.0,30.23,SE,146,0.0,0.0,90,0.00,,,0.00,0.000000,,2013-08-07 10:01:00,
2013-08-07 06:11:00,63.0,60.0,30.23,SE,146,0.0,0.0,90,0.00,,,0.00,0.000000,,2013-08-07 10:11:00,
2013-08-07 06:22:00,63.0,60.0,30.23,SE,146,0.0,0.0,89,0.00,,,0.00,5.000000,,2013-08-07 10:22:00,
2013-08-07 06:32:00,63.0,60.0,30.24,SE,146,0.0,0.0,90,0.00,,,0.00,9.000000,,2013-08-07 10:32:00,
2013-08-07 06:52:00,63.0,60.0,30.24,SE,146,0.0,0.0,90,0.00,,,0.00,16.000000,,2013-08-07 10:52:00,
2013-08-07 07:01:00,63.0,60.0,30.24,SE,146,0.0,0.0,90,0.00,,,0.00,23.000000,,2013-08-07 11:01:00,
2013-08-07 07:22:00,63.0,60.0,30.24,SE,146,0.0,0.0,90,0.00,,,0.00,26.000000,,2013-08-07 11:22:00,
2013-08-07 07:52:00,64.0,61.0,30.24,ESE,109,0.0,2.0,90,0.00,,,0.00,86.000000,,2013-08-07 11:52:00,
2013-08-07 08:02:00,65.0,62.0,30.24,ESE,105,0.0,2.0,89,0.00,,,0.00,118.000000,,2013-08-07 12:02:00,
2013-08-07 08:11:00,66.0,62.0,30.24,East,84,0.0,3.0,87,0.00,,,0.00,105.000000,,2013-08-07 12:11:00,
2013-08-07 08:22:00,66.0,62.0,30.24,East,84,0.0,3.0,87,0.00,,,0.00,105.000000,,2013-08-07 12:22:00,
2013-08-07 08:33:00,66.0,62.0,30.24,East,84,0.0,3.0,87,0.00,,,0.00,105.000000,,2013-08-07 12:33:00,
2013-08-07 08:43:00,67.0,62.0,30.24,ESE,108,0.0,4.0,84,0.00,,,0.00,72.000000,,2013-08-07 12:43:00,
2013-08-07 08:52:00,67.0,62.0,30.24,ESE,108,0.0,4.0,84,0.00,,,0.00,72.000000,,2013-08-07 12:52:00,
2013-08-07 09:02:00,66.0,61.0,30.24,ENE,72,0.0,4.0,85,0.00,,,0.00,165.000000,,2013-08-07 13:02:00,
2013-08-07 09:12:00,66.0,61.0,30.24,ENE,72,0.0,4.0,85,0.00,,,0.00,165.000000,,2013-08-07 13:12:00,
2013-08-07 09:22:00,67.0,62.0,30.23,SE,127,0.0,4.0,84,0.00,,,0.00,160.000000,,2013-08-07 13:22:00,
2013-08-07 09:32:00,68.0,63.0,30.23,NW,306,1.0,7.0,83,0.00,,,0.00,244.000000,,2013-08-07 13:32:00,
2013-08-07 09:44:00,68.0,63.0,30.23,NW,306,1.0,7.0,83,0.00,,,0.00,244.000000,,2013-08-07 13:44:00,
2013-08-07 09:53:00,71.0,65.0,30.23,SE,140,0.0,5.0,80,0.00,,,0.00,330.000000,,2013-08-07 13:53:00,
2013-08-07 10:02:00,70.0,64.0,30.23,ESE,109,0.0,6.0,80,0.00,,,0.00,269.000000,,2013-08-07 14:02:00,
2013-08-07 10:12:00,70.0,64.0,30.23,ESE,109,0.0,6.0,80,0.00,,,0.00,269.000000,,2013-08-07 14:12:00,
2013-08-07 10:22:00,69.0,63.0,30.23,East,99,0.0,10.0,80,0.00,,,0.00,204.000000,,2013-08-07 14:22:00,
2013-08-07 10:33:00,69.0,62.0,30.23,NNE,26,0.0,6.0,79,0.00,,,0.00,234.000000,,2013-08-07 14:33:00,
2013-08-07 10:43:00,69.0,62.0,30.23,NNE,26,0.0,6.0,79,0.00,,,0.00,234.000000,,2013-08-07 14:43:00,
2013-08-07 11:02:00,70.0,63.0,30.24,SE,126,0.0,3.0,79,0.00,,,0.00,253.000000,,2013-08-07 15:02:00,
2013-08-07 11:13:00,70.0,63.0,30.24,SE,126,0.0,3.0,79,0.00,,,0.00,253.000000,,2013-08-07 15:13:00,
2013-08-07 11:22:00,70.0,62.0,30.24,ESE,121,1.0,7.0,76,0.00,,,0.00,199.000000,,2013-08-07 15:22:00,
2013-08-07 11:33:00,70.0,62.0,30.24,ESE,121,1.0,7.0,76,0.00,,,0.00,199.000000,,2013-08-07 15:33:00,
2013-08-07 11:43:00,70.0,63.0,30.23,SSE,153,0.0,7.0,78,0.00,,,0.00,316.000000,,2013-08-07 15:43:00,
2013-08-07 11:53:00,71.0,63.0,30.24,SE,142,0.0,6.0,77,0.00,,,0.00,388.000000,,2013-08-07 15:53:00,
2013-08-07 12:02:00,72.0,64.0,30.23,South,171,1.0,6.0,76,0.00,,,0.00,353.000000,,2013-08-07 16:02:00,
2013-08-07 12:11:00,72.0,64.0,30.23,South,171,1.0,6.0,76,0.00,,,0.00,353.000000,,2013-08-07 16:11:00,
2013-08-07 12:43:00,73.0,64.0,30.23,SE,142,2.0,7.0,74,0.00,,,0.00,380.000000,,2013-08-07 16:43:00,
2013-08-07 12:53:00,73.0,65.0,30.23,SE,124,0.0,5.0,76,0.00,,,0.00,367.000000,,2013-08-07 16:53:00,
2013-08-07 13:02:00,73.0,63.0,30.23,ESE,112,1.0,6.0,70,0.00,,,0.00,308.000000,,2013-08-07 17:02:00,
2013-08-07 13:11:00,73.0,63.0,30.23,ESE,112,1.0,6.0,70,0.00,,,0.00,308.000000,,2013-08-07 17:11:00,
2013-08-07 13:23:00,72.0,63.0,30.23,SSE,150,0.0,4.0,73,0.00,,,0.00,301.000000,,2013-08-07 17:23:00,
2013-08-07 13:33:00,71.0,63.0,30.23,West,265,1.0,9.0,75,0.00,,,0.00,216.000000,,2013-08-07 17:33:00,
2013-08-07 13:43:00,71.0,63.0,30.23,West,265,1.0,9.0,75,0.00,,,0.00,216.000000,,2013-08-07 17:43:00,
2013-08-07 13:52:00,72.0,63.0,30.23,South,186,0.0,7.0,73,0.00,,,0.00,538.000000,,2013-08-07 17:52:00,
2013-08-07 14:02:00,71.0,62.0,30.23,SE,133,2.0,10.0,72,0.00,,,0.00,155.000000,,2013-08-07 18:02:00,
2013-08-07 14:12:00,71.0,62.0,30.23,SE,133,2.0,10.0,72,0.00,,,0.00,155.000000,,2013-08-07 18:12:00,
2013-08-07 14:22:00,73.0,64.0,30.22,SE,146,1.0,4.0,74,0.00,,,0.00,951.000000,,2013-08-07 18:22:00,
2013-08-07 14:32:00,73.0,64.0,30.22,SE,146,1.0,4.0,74,0.00,,,0.00,951.000000,,2013-08-07 18:32:00,
2013-08-07 14:43:00,73.0,64.0,30.22,SE,146,1.0,4.0,74,0.00,,,0.00,951.000000,,2013-08-07 18:43:00,
2013-08-07 14:52:00,74.0,63.0,30.21,SE,130,3.0,9.0,69,0.00,,,0.00,798.000000,,2013-08-07 18:52:00,
2013-08-07 15:01:00,75.0,64.0,30.21,WNW,302,0.0,4.0,69,0.00,,,0.00,842.000000,,2013-08-07 19:01:00,
2013-08-07 15:11:00,75.0,64.0,30.21,WNW,302,0.0,4.0,69,0.00,,,0.00,842.000000,,2013-08-07 19:11:00,
2013-08-07 15:22:00,75.0,64.0,30.21,West,281,1.0,7.0,69,0.00,,,0.00,142.000000,,2013-08-07 19:22:00,
2013-08-07 15:32:00,75.0,64.0,30.21,West,281,1.0,7.0,69,0.00,,,0.00,142.000000,,2013-08-07 19:32:00,
2013-08-07 15:44:00,73.0,64.0,30.20,East,99,0.0,9.0,74,0.00,,,0.00,195.000000,,2013-08-07 19:44:00,
2013-08-07 15:53:00,73.0,65.0,30.20,NNE,25,0.0,8.0,77,0.00,,,0.00,381.000000,,2013-08-07 19:53:00,
2013-08-07 16:02:00,74.0,65.0,30.20,SE,144,1.0,10.0,74,0.00,,,0.00,192.000000,,2013-08-07 20:02:00,
2013-08-07 16:11:00,74.0,65.0,30.20,SE,144,1.0,10.0,74,0.00,,,0.00,192.000000,,2013-08-07 20:11:00,
2013-08-07 16:22:00,74.0,65.0,30.20,SE,144,1.0,10.0,74,0.00,,,0.00,192.000000,,2013-08-07 20:22:00,
2013-08-07 16:43:00,73.0,65.0,30.20,SE,137,0.0,3.0,76,0.00,,,0.00,383.000000,,2013-08-07 20:43:00,
2013-08-07 16:52:00,73.0,65.0,30.19,SSE,150,1.0,7.0,76,0.00,,,0.00,148.000000,,2013-08-07 20:52:00,
2013-08-07 17:02:00,73.0,66.0,30.19,SE,133,0.0,4.0,78,0.00,,,0.00,169.000000,,2013-08-07 21:02:00,
2013-08-07 17:11:00,73.0,66.0,30.19,SE,133,0.0,4.0,78,0.00,,,0.00,169.000000,,2013-08-07 21:11:00,
2013-08-07 17:22:00,74.0,65.0,30.18,North,350,0.0,4.0,74,0.00,,,0.00,221.000000,,2013-08-07 21:22:00,
2013-08-07 17:32:00,74.0,65.0,30.18,South,169,0.0,5.0,73,0.00,,,0.00,113.000000,,2013-08-07 21:32:00,
2013-08-07 17:43:00,74.0,65.0,30.18,South,169,0.0,5.0,73,0.00,,,0.00,113.000000,,2013-08-07 21:43:00,
2013-08-07 17:52:00,73.0,65.0,30.18,NNE,13,0.0,3.0,75,0.00,,,0.00,47.000000,,2013-08-07 21:52:00,
2013-08-07 18:01:00,73.0,65.0,30.18,NNE,13,0.0,3.0,75,0.00,,,0.00,47.000000,,2013-08-07 22:01:00,
2013-08-07 18:12:00,72.0,64.0,30.18,WNW,301,0.0,2.0,76,0.00,,,0.00,49.000000,,2013-08-07 22:12:00,
2013-08-07 18:32:00,72.0,63.0,30.18,SW,229,0.0,4.0,74,0.00,,,0.00,42.000000,,2013-08-07 22:32:00,
2013-08-07 18:43:00,72.0,64.0,30.18,West,277,0.0,9.0,75,0.00,,,0.00,39.000000,,2013-08-07 22:43:00,
2013-08-07 18:52:00,71.0,63.0,30.17,WSW,242,2.0,7.0,77,0.00,,,0.00,28.000000,,2013-08-07 22:52:00,
2013-08-07 19:01:00,71.0,64.0,30.17,SSW,206,0.0,4.0,78,0.00,,,0.00,21.000000,,2013-08-07 23:01:00,
2013-08-07 19:11:00,71.0,64.0,30.17,SSW,206,0.0,4.0,78,0.00,,,0.00,21.000000,,2013-08-07 23:11:00,
2013-08-07 19:22:00,71.0,64.0,30.18,SSE,153,0.0,3.0,79,0.00,,,0.00,11.000000,,2013-08-07 23:22:00,
2013-08-07 19:32:00,71.0,65.0,30.18,SE,132,0.0,3.0,80,0.00,,,0.00,9.000000,,2013-08-07 23:32:00,
2013-08-07 19:43:00,71.0,65.0,30.18,SE,132,0.0,3.0,80,0.00,,,0.00,9.000000,,2013-08-07 23:43:00,
2013-08-07 19:52:00,71.0,65.0,30.16,NE,42,0.0,3.0,80,0.00,,,0.00,0.000000,,2013-08-07 23:52:00,
2013-08-07 20:01:00,71.0,65.0,30.17,NW,325,0.0,4.0,80,0.00,,,0.00,0.000000,,2013-08-08 00:01:00,
2013-08-07 20:22:00,70.0,64.0,30.17,SSE,152,0.0,2.0,81,0.00,,,0.00,0.000000,,2013-08-08 00:22:00,
2013-08-07 20:32:00,70.0,64.0,30.17,SSE,152,0.0,2.0,81,0.00,,,0.00,0.000000,,2013-08-08 00:32:00,
2013-08-07 20:43:00,70.0,64.0,30.16,WNW,295,0.0,4.0,82,0.00,,,0.00,0.000000,,2013-08-08 00:43:00,
2013-08-07 20:53:00,70.0,65.0,30.17,SW,223,0.0,5.0,83,0.00,,,0.00,0.000000,,2013-08-08 00:53:00,
2013-08-07 21:02:00,70.0,65.0,30.17,SW,223,0.0,5.0,83,0.00,,,0.00,0.000000,,2013-08-08 01:02:00,
2013-08-07 21:11:00,70.0,65.0,30.16,SE,144,0.0,2.0,85,0.00,,,0.00,0.000000,,2013-08-08 01:11:00,
2013-08-07 21:22:00,70.0,65.0,30.16,SE,144,0.0,2.0,85,0.00,,,0.00,0.000000,,2013-08-08 01:22:00,
2013-08-07 21:32:00,70.0,65.0,30.17,WNW,292,0.0,2.0,85,0.00,,,0.00,0.000000,,2013-08-08 01:32:00,
2013-08-07 21:43:00,70.0,66.0,30.17,SW,232,0.0,4.0,86,0.00,,,0.00,0.000000,,2013-08-08 01:43:00,
2013-08-07 21:52:00,70.0,66.0,30.17,SW,232,0.0,4.0,86,0.00,,,0.00,0.000000,,2013-08-08 01:52:00,
2013-08-07 22:02:00,69.0,65.0,30.18,West,277,0.0,1.0,88,0.00,,,0.00,0.000000,,2013-08-08 02:02:00,
2013-08-07 22:11:00,69.0,65.0,30.18,West,277,0.0,1.0,88,0.00,,,0.00,0.000000,,2013-08-08 02:11:00,
2013-08-07 22:22:00,69.0,65.0,30.18,SSW,193,0.0,3.0,88,0.00,,,0.00,0.000000,,2013-08-08 02:22:00,
2013-08-07 22:32:00,69.0,65.0,30.18,West,259,0.0,1.0,88,0.00,,,0.00,0.000000,,2013-08-08 02:32:00,
2013-08-07 22:43:00,69.0,65.0,30.18,West,259,0.0,1.0,88,0.00,,,0.00,0.000000,,2013-08-08 02:43:00,
2013-08-07 22:52:00,69.0,66.0,30.18,WSW,243,0.0,4.0,89,0.00,,,0.00,0.000000,,2013-08-08 02:52:00,
2013-08-07 23:02:00,69.0,66.0,30.18,SSW,209,0.0,4.0,89,0.00,,,0.00,0.000000,,2013-08-08 03:02:00,
2013-08-07 23:12:00,69.0,66.0,30.18,SSW,209,0.0,4.0,89,0.00,,,0.00,0.000000,,2013-08-08 03:12:00,
2013-08-07 23:22:00,69.0,66.0,30.18,East,91,0.0,1.0,90,0.00,,,0.00,0.000000,,2013-08-08 03:22:00,
2013-08-07 23:32:00,69.0,66.0,30.18,East,91,0.0,1.0,90,0.00,,,0.00,0.000000,,2013-08-08 03:32:00,
2013-08-07 23:43:00,69.0,66.0,30.18,ESE,119,0.0,0.0,90,0.00,,,0.00,0.000000,,2013-08-08 03:43:00,
2013-08-07 23:52:00,69.0,66.0,30.17,ESE,119,0.0,0.0,90,0.00,,,0.00,0.000000,,2013-08-08 03:52:00,